Time;durP1;ratioP1;P1;durP2;ratioP2;P2;SDS_P1;SDS_P2;PMS_P1;PMS_P2;Temp;Humidity;BMP_temperature;BMP_pressure;BME280_temperature;BME280_humidity;BME280_pressure;Samples;Min_cycle;Max_cycle;Signal;HPM_P1;HPM_P2
2022/03/15 00:01:11;;;;;;;19.30;12.02;;;;;;;6.02;43.53;100582.41;5026727;28;20042;-67
2022/03/15 00:03:39;;;;;;;15.85;10.80;;;;;;;6.09;43.86;100570.88;5029493;28;20197;-67
2022/03/15 00:06:10;;;;;;;15.93;11.13;;;;;;;6.04;43.89;100578.00;5029398;28;20038;-67
2022/03/15 00:08:40;;;;;;;15.35;10.50;;;;;;;6.04;43.53;100578.00;5029923;28;20046;-67
2022/03/15 00:11:10;;;;;;;14.27;9.80;;;;;;;6.01;43.36;100577.19;5029604;28;20233;-67
2022/03/15 00:13:40;;;;;;;13.13;10.18;;;;;;;5.98;43.63;100575.47;5029305;28;20193;-67
2022/03/15 00:16:11;;;;;;;15.77;11.23;;;;;;;5.99;43.75;100574.56;5029585;28;20293;-67
2022/03/15 00:18:41;;;;;;;14.10;9.82;;;;;;;5.96;43.71;100573.75;5029115;28;20182;-67
2022/03/15 00:21:12;;;;;;;13.52;9.88;;;;;;;5.94;43.88;100575.56;5029456;28;20076;-67
2022/03/15 00:23:42;;;;;;;14.23;10.27;;;;;;;5.18;43.75;100448.81;5029096;28;20037;-67
2022/03/15 00:26:11;;;;;;;13.07;10.15;;;;;;;5.37;43.64;100494.06;5029302;28;20050;-67
2022/03/15 00:28:40;;;;;;;13.77;10.02;;;;;;;5.85;44.11;100575.69;5029284;28;20050;-67
2022/03/15 00:31:12;;;;;;;13.80;10.32;;;;;;;5.77;44.45;100584.59;5029583;28;20042;-67
2022/03/15 00:33:42;;;;;;;15.60;9.88;;;;;;;5.81;43.96;100572.25;5028945;28;20041;-67
2022/03/15 00:36:11;;;;;;;16.38;11.13;;;;;;;5.85;44.10;100571.31;5029102;28;20038;-67
2022/03/15 00:38:42;;;;;;;14.52;10.63;;;;;;;5.83;43.92;100569.59;5028776;28;20046;-67
2022/03/15 00:41:11;;;;;;;16.45;10.48;;;;;;;5.81;44.14;100569.63;5029275;28;20030;-67
2022/03/15 00:43:41;;;;;;;14.52;10.95;;;;;;;5.83;43.89;100561.72;5028240;28;20068;-67
2022/03/15 00:46:13;;;;;;;14.13;9.88;;;;;;;5.80;44.37;100559.13;5028976;28;20038;-67
2022/03/15 00:48:41;;;;;;;15.05;9.95;;;;;;;5.72;44.11;100548.72;5027919;28;20046;-67
2022/03/15 00:51:12;;;;;;;16.40;10.63;;;;;;;5.73;44.77;100548.69;5028598;28;20048;-67
2022/03/15 00:53:42;;;;;;;15.38;10.05;;;;;;;5.74;44.09;100552.19;5028863;28;20084;-66
2022/03/15 00:56:12;;;;;;;15.70;11.85;;;;;;;5.74;43.92;100544.31;5028822;28;20092;-67
2022/03/15 00:58:42;;;;;;;13.55;10.38;;;;;;;5.69;44.26;100540.88;5028954;28;20041;-66
2022/03/15 01:01:13;;;;;;;13.52;10.70;;;;;;;5.67;44.57;100540.03;5028428;28;20080;-66
2022/03/15 01:03:42;;;;;;;15.93;11.35;;;;;;;5.67;44.34;100534.78;5028928;28;20076;-66
2022/03/15 01:06:12;;;;;;;15.68;11.05;;;;;;;5.56;45.15;100540.22;5028632;28;20105;-67
2022/03/15 01:08:42;;;;;;;14.40;11.13;;;;;;;5.57;44.33;100539.31;5028310;28;20054;-67
2022/03/15 01:11:13;;;;;;;12.90;10.80;;;;;;;5.56;44.38;100536.72;5028344;28;20034;-67
2022/03/15 01:13:43;;;;;;;13.73;9.98;;;;;;;5.53;44.43;100537.63;5028054;28;20037;-67
2022/03/15 01:16:14;;;;;;;14.82;9.98;;;;;;;5.49;44.75;100541.22;5027981;28;20104;-67
2022/03/15 01:18:43;;;;;;;14.80;11.18;;;;;;;5.47;45.11;100535.09;5028303;28;20030;-67
2022/03/15 01:21:14;;;;;;;15.10;11.65;;;;;;;5.48;45.06;100546.50;5028083;28;20041;-67
2022/03/15 01:23:43;;;;;;;14.93;10.10;;;;;;;5.43;45.09;100542.16;5028009;28;20041;-67
2022/03/15 01:26:14;;;;;;;13.60;9.50;;;;;;;5.44;44.82;100535.16;5028216;28;20084;-67
2022/03/15 01:28:43;;;;;;;11.52;9.02;;;;;;;5.37;45.27;100534.38;5028196;28;20029;-67
2022/03/15 01:31:15;;;;;;;14.93;9.98;;;;;;;5.20;45.42;100501.34;5027069;28;20066;-66
2022/03/15 01:33:44;;;;;;;13.25;9.75;;;;;;;5.43;44.79;100530.78;5028066;28;20037;-66
2022/03/15 01:36:14;;;;;;;13.23;9.93;;;;;;;5.36;45.41;100532.66;5028056;28;20088;-67
2022/03/15 01:38:44;;;;;;;13.55;10.07;;;;;;;5.34;44.97;100533.56;5028186;28;20060;-67
2022/03/15 01:41:14;;;;;;;16.17;9.90;;;;;;;5.33;45.14;100532.69;5027696;28;20038;-67
2022/03/15 01:43:46;;;;;;;13.60;9.77;;;;;;;5.32;45.29;100530.09;5027623;28;20057;-67
2022/03/15 01:46:17;;;;;;;13.43;10.45;;;;;;;4.02;45.52;100295.56;5027563;28;20046;-67
2022/03/15 01:48:44;;;;;;;17.55;11.13;;;;;;;5.33;45.63;100518.69;5027646;28;20057;-67
2022/03/15 01:51:17;;;;;;;15.27;9.70;;;;;;;5.33;45.20;100516.06;5027783;28;20042;-67
2022/03/15 01:53:45;;;;;;;16.27;10.55;;;;;;;5.34;45.08;100526.53;5027395;28;20052;-67
2022/03/15 01:56:15;;;;;;;14.90;9.90;;;;;;;5.28;45.35;100521.38;5027199;28;20104;-66
2022/03/15 01:58:45;;;;;;;22.10;13.05;;;;;;;5.24;45.23;100516.19;5027446;28;20041;-66
2022/03/15 02:01:17;;;;;;;15.48;11.82;;;;;;;5.21;45.33;100517.09;5027577;28;20046;-67
2022/03/15 02:03:45;;;;;;;14.68;9.68;;;;;;;5.28;45.09;100529.25;5027540;28;20030;-67
2022/03/15 02:06:15;;;;;;;16.17;11.35;;;;;;;5.28;46.04;100526.63;5027793;28;20042;-67
2022/03/15 02:08:45;;;;;;;15.30;10.15;;;;;;;5.28;46.16;100531.03;5027158;28;20213;-66
2022/03/15 02:11:16;;;;;;;14.73;10.43;;;;;;;5.22;45.81;100526.72;5027077;28;20301;-67
2022/03/15 02:13:46;;;;;;;14.95;9.68;;;;;;;4.39;45.74;100429.78;5027078;28;20069;-67
2022/03/15 02:16:17;;;;;;;14.45;11.27;;;;;;;5.12;45.96;100530.38;5026533;28;20042;-66
2022/03/15 02:18:46;;;;;;;15.13;11.02;;;;;;;5.07;45.79;100533.06;5027156;28;20046;-67
2022/03/15 02:21:17;;;;;;;15.07;9.77;;;;;;;5.04;46.76;100527.84;5026916;28;20038;-67
2022/03/15 02:23:46;;;;;;;13.38;9.85;;;;;;;5.05;46.11;100524.34;5026097;28;20061;-67
2022/03/15 02:26:17;;;;;;;11.55;9.90;;;;;;;5.12;46.48;100527.75;5027107;28;20030;-67
2022/03/15 02:28:46;;;;;;;17.13;10.40;;;;;;;5.10;46.60;100529.53;5026782;28;20217;-67
2022/03/15 02:31:16;;;;;;;17.15;10.60;;;;;;;4.52;46.06;100462.00;5026656;28;20205;-67
2022/03/15 02:33:47;;;;;;;15.13;9.25;;;;;;;5.04;46.40;100529.63;5026684;28;20305;-67
2022/03/15 02:36:18;;;;;;;13.00;10.05;;;;;;;5.04;45.98;100529.63;5026619;28;20321;-67
2022/03/15 02:38:47;;;;;;;13.98;9.48;;;;;;;5.05;45.95;100526.97;5026806;28;20096;-67
2022/03/15 02:41:17;;;;;;;14.75;9.88;;;;;;;5.05;45.89;100531.34;5026562;28;20088;-67
2022/03/15 02:43:47;;;;;;;15.38;9.60;;;;;;;5.00;46.84;100533.19;5026791;28;20077;-67
2022/03/15 02:46:17;;;;;;;12.20;9.35;;;;;;;4.97;46.40;100530.59;5026732;28;20042;-67
2022/03/15 02:48:47;;;;;;;13.82;9.65;;;;;;;4.97;46.32;100531.47;5026702;28;20052;-67
2022/03/15 02:51:19;;;;;;;15.90;11.68;;;;;;;4.93;46.55;100529.75;5026701;28;20042;-67
2022/03/15 02:53:48;;;;;;;14.55;10.77;;;;;;;4.94;46.36;100528.00;5026738;28;20033;-67
2022/03/15 02:56:18;;;;;;;10.63;8.85;;;;;;;4.91;46.64;100528.03;5026593;28;20073;-67
2022/03/15 02:58:49;;;;;;;14.07;10.82;;;;;;;4.90;46.43;100531.56;5026750;28;20041;-66
2022/03/15 03:01:20;;;;;;;11.80;8.73;;;;;;;4.89;46.78;100535.03;5026442;28;20057;-67
2022/03/15 03:03:48;;;;;;;14.02;9.27;;;;;;;4.82;47.09;100532.50;5026866;28;20050;-66
2022/03/15 03:06:19;;;;;;;12.43;9.52;;;;;;;4.74;47.57;100533.50;5026400;28;20041;-67
2022/03/15 03:08:48;;;;;;;16.67;10.85;;;;;;;4.71;46.78;100534.41;5026108;28;20069;-67
2022/03/15 03:11:18;;;;;;;11.00;8.60;;;;;;;4.69;46.70;100530.06;5026394;28;20041;-67
2022/03/15 03:13:50;;;;;;;11.55;9.05;;;;;;;4.68;46.56;100534.44;5026608;28;20029;-67
2022/03/15 03:16:19;;;;;;;13.93;9.30;;;;;;;4.63;46.92;100533.63;5025931;28;20054;-67
2022/03/15 03:18:48;;;;;;;13.20;11.10;;;;;;;4.61;46.63;100527.53;5025919;28;20102;-67
2022/03/15 03:21:20;;;;;;;12.02;9.02;;;;;;;4.56;47.53;100525.84;5026166;28;20054;-67
2022/03/15 03:23:53;;;;;;;15.63;9.85;;;;;;;4.56;47.50;100531.97;5026177;28;20105;-67
2022/03/15 03:26:26;;;;;;;15.90;9.40;;;;;;;4.59;46.69;100531.91;5025812;28;20038;-66
2022/03/15 03:28:59;;;;;;;16.17;10.38;;;;;;;4.59;46.73;100533.69;5026118;28;20046;-67
2022/03/15 03:31:31;;;;;;;15.50;10.02;;;;;;;4.58;47.37;100526.69;5025046;28;20042;-67
2022/03/15 03:34:04;;;;;;;12.10;9.65;;;;;;;4.55;47.24;100535.47;5025710;28;20042;-67
2022/03/15 03:36:37;;;;;;;13.55;9.65;;;;;;;4.47;47.48;100530.31;5025847;28;20038;-66
2022/03/15 03:39:10;;;;;;;13.52;9.82;;;;;;;4.44;48.20;100526.84;5041384;28;20042;-67
2022/03/15 03:41:42;;;;;;;18.00;11.02;;;;;;;4.52;47.25;100527.63;5025200;28;20084;-68
2022/03/15 03:44:14;;;;;;;17.00;9.70;;;;;;;4.57;46.81;100524.94;5025660;28;20045;-67
2022/03/15 03:46:47;;;;;;;12.60;9.70;;;;;;;4.64;46.57;100534.50;5025623;28;20245;-66
2022/03/15 03:49:19;;;;;;;13.02;10.35;;;;;;;4.66;46.71;100524.84;5024984;28;20046;-66
2022/03/15 03:51:52;;;;;;;14.43;10.25;;;;;;;4.57;47.75;100530.19;5024868;28;20241;-66
2022/03/15 03:54:24;;;;;;;18.55;10.50;;;;;;;4.50;47.44;100550.41;5025465;28;20069;-67
2022/03/15 03:56:57;;;;;;;21.25;11.30;;;;;;;4.52;47.31;100538.13;5025876;28;20045;-67
2022/03/15 03:59:29;;;;;;;14.55;11.05;;;;;;;4.57;46.92;100524.94;5025519;28;20092;-67
2022/03/15 04:02:01;;;;;;;15.23;9.70;;;;;;;4.57;47.46;100520.56;5025623;28;20289;-67
2022/03/15 04:04:33;;;;;;;14.77;10.18;;;;;;;4.58;47.02;100521.44;5025758;28;20085;-67
2022/03/15 04:07:11;;;;;;;12.98;10.00;;;;;;;4.57;47.22;100522.31;5025530;28;20061;-67
2022/03/15 04:09:43;;;;;;;12.20;9.23;;;;;;;4.54;46.84;100520.59;5025536;28;20297;-67
2022/03/15 04:12:15;;;;;;;14.45;10.27;;;;;;;4.54;47.24;100520.59;5025492;28;20046;-67
2022/03/15 04:14:48;;;;;;;14.93;10.52;;;;;;;4.54;47.16;100517.13;5025552;28;20105;-66
2022/03/15 04:17:21;;;;;;;17.50;11.35;;;;;;;4.30;47.25;100492.03;5025391;28;20038;-67
2022/03/15 04:19:53;;;;;;;16.45;11.27;;;;;;;4.50;47.20;100524.16;5025297;28;20092;-67
2022/03/15 04:22:26;;;;;;;14.45;9.95;;;;;;;4.52;47.10;100527.63;5024421;28;20046;-67
2022/03/15 04:24:59;;;;;;;14.73;10.07;;;;;;;4.41;46.67;100498.00;5025491;28;20042;-67
2022/03/15 04:27:31;;;;;;;16.52;12.40;;;;;;;4.55;46.80;100517.09;5025809;28;20038;-67
2022/03/15 04:30:04;;;;;;;14.07;11.13;;;;;;;4.57;46.98;100519.69;5024395;28;20088;-66
2022/03/15 04:32:36;;;;;;;14.43;11.80;;;;;;;4.52;46.74;100511.88;5025230;28;20041;-67
2022/03/15 04:35:08;;;;;;;16.13;11.55;;;;;;;4.47;47.31;100525.06;5025490;28;20042;-66
2022/03/15 04:37:42;;;;;;;14.68;12.05;;;;;;;4.44;46.72;100522.47;5025490;28;20100;-66
2022/03/15 04:40:17;;;;;;;18.55;12.02;;;;;;;4.45;46.81;100524.22;5025330;28;20046;-67
2022/03/15 04:42:50;;;;;;;17.83;12.13;;;;;;;4.43;46.57;100512.00;5025393;28;20037;-66
2022/03/15 04:45:24;;;;;;;14.98;11.55;;;;;;;4.47;46.27;100513.69;5025126;28;20088;-66
2022/03/15 04:47:56;;;;;;;17.52;13.50;;;;;;;4.53;46.26;100513.63;5027613;28;20237;-66
2022/03/15 04:50:30;;;;;;;15.68;11.20;;;;;;;4.53;46.56;100512.75;5028936;28;20096;-66
2022/03/15 04:53:03;;;;;;;17.20;13.38;;;;;;;4.41;46.89;100506.75;5028886;28;20294;-66
2022/03/15 04:55:35;;;;;;;17.90;12.52;;;;;;;4.34;46.83;100515.59;5028338;28;20111;-66
2022/03/15 04:58:08;;;;;;;18.48;12.85;;;;;;;4.38;46.63;100512.03;5028752;28;20084;-66
2022/03/15 05:00:40;;;;;;;19.05;13.60;;;;;;;4.45;46.16;100513.72;5028364;28;20088;-66
2022/03/15 05:03:16;;;;;;;15.27;11.70;;;;;;;4.40;46.73;100512.03;5028388;28;20089;-66
2022/03/15 05:05:48;;;;;;;16.88;12.35;;;;;;;4.36;46.09;100505.94;5028324;28;20104;-66
2022/03/15 05:08:22;;;;;;;16.17;11.75;;;;;;;4.39;46.55;100507.66;5027578;28;20165;-65
2022/03/15 05:11:10;;;;;;;16.80;13.05;;;;;;;4.34;46.61;100512.97;5028297;28;20049;-65
2022/03/15 05:13:44;;;;;;;17.83;12.95;;;;;;;4.35;46.75;100513.84;5028174;28;20042;-66
2022/03/15 05:16:19;;;;;;;22.90;12.23;;;;;;;4.32;46.57;100519.13;5028185;28;20046;-65
2022/03/15 05:18:49;;;;;;;16.58;11.98;;;;;;;4.30;46.73;100521.75;5028066;28;20052;-66
2022/03/15 05:21:17;;;;;;;17.15;11.77;;;;;;;4.33;46.86;100526.09;5027754;28;20049;-67
2022/03/15 05:23:49;;;;;;;16.95;12.52;;;;;;;4.37;46.84;100512.94;5027964;28;20205;-66
2022/03/15 05:26:18;;;;;;;17.13;11.73;;;;;;;4.39;46.44;100518.16;5028228;28;20297;-66
2022/03/15 05:28:49;;;;;;;16.02;12.00;;;;;;;4.36;46.58;100512.94;5027794;28;20305;-67
2022/03/15 05:31:19;;;;;;;16.40;12.93;;;;;;;4.38;46.44;100511.19;5027875;28;20053;-65
2022/03/15 05:33:48;;;;;;;20.52;13.98;;;;;;;4.28;46.21;100517.41;5027965;28;20042;-65
2022/03/15 05:36:19;;;;;;;18.75;12.63;;;;;;;4.25;46.32;100518.31;5028195;28;20049;-65
2022/03/15 05:38:49;;;;;;;18.80;12.23;;;;;;;4.23;46.39;100506.97;5027476;28;20038;-65
2022/03/15 05:41:18;;;;;;;18.35;13.55;;;;;;;4.23;46.06;100503.47;5027481;28;20053;-65
2022/03/15 05:43:49;;;;;;;16.70;12.68;;;;;;;4.24;46.69;100497.34;5027840;28;20049;-65
2022/03/15 05:46:18;;;;;;;17.55;11.57;;;;;;;4.24;45.99;100506.09;5027882;28;20029;-65
2022/03/15 05:48:48;;;;;;;15.60;12.38;;;;;;;4.27;46.17;100498.19;5027844;28;20044;-65
2022/03/15 05:51:20;;;;;;;15.48;11.75;;;;;;;4.17;46.25;100509.63;5027438;28;20052;-65
2022/03/15 05:53:50;;;;;;;16.83;11.55;;;;;;;4.14;45.99;100500.03;5027188;28;20041;-65
2022/03/15 05:56:19;;;;;;;16.75;12.30;;;;;;;4.23;45.80;100492.97;5027349;28;20041;-66
2022/03/15 05:58:49;;;;;;;14.40;10.80;;;;;;;4.24;45.97;100492.97;5026311;28;20041;-66
2022/03/15 06:01:19;;;;;;;20.58;12.57;;;;;;;4.18;45.92;100503.50;5027428;28;20045;-65
2022/03/15 06:03:49;;;;;;;17.65;12.75;;;;;;;4.08;46.25;100507.97;5027122;28;20088;-65
2022/03/15 06:06:20;;;;;;;17.90;12.40;;;;;;;4.07;45.98;100505.38;5026891;28;20178;-65
2022/03/15 06:08:51;;;;;;;15.45;12.80;;;;;;;4.05;46.30;100504.50;5027102;28;20049;-65
2022/03/15 06:11:20;;;;;;;14.60;12.05;;;;;;;4.11;46.22;100504.44;5026991;28;20298;-65
2022/03/15 06:13:49;;;;;;;20.85;13.18;;;;;;;4.15;46.10;100499.16;5027282;28;20038;-65
2022/03/15 06:16:20;;;;;;;15.48;11.88;;;;;;;4.28;45.59;100489.41;5026946;28;20294;-65
2022/03/15 06:18:50;;;;;;;16.95;12.50;;;;;;;4.32;45.18;100493.75;5026892;28;20186;-65
2022/03/15 06:21:20;;;;;;;15.20;11.68;;;;;;;4.36;45.87;100494.56;5027068;28;20278;-66
2022/03/15 06:23:51;;;;;;;17.10;13.27;;;;;;;4.33;45.56;100490.22;5027033;28;20294;-66
2022/03/15 06:26:21;;;;;;;15.93;12.80;;;;;;;4.37;45.14;100501.56;5026990;28;20179;-65
2022/03/15 06:28:50;;;;;;;17.77;12.98;;;;;;;4.33;45.54;100492.84;5026546;28;20306;-66
2022/03/15 06:31:20;;;;;;;18.33;12.88;;;;;;;4.28;45.72;100502.53;5026583;28;20298;-66
2022/03/15 06:33:50;;;;;;;16.52;11.93;;;;;;;4.28;45.73;100497.28;5025827;28;20209;-66
2022/03/15 06:36:21;;;;;;;16.70;12.73;;;;;;;4.36;45.17;100486.69;5026564;28;20201;-66
2022/03/15 06:38:53;;;;;;;15.85;12.15;;;;;;;4.39;45.42;100490.16;5026857;28;20286;-66
2022/03/15 06:41:21;;;;;;;16.50;12.55;;;;;;;4.49;45.12;100480.41;5026296;28;20042;-65
2022/03/15 06:43:51;;;;;;;21.73;12.60;;;;;;;4.59;45.00;100487.28;5026399;28;20042;-66
2022/03/15 06:46:21;;;;;;;19.95;13.60;;;;;;;4.65;44.71;100484.59;5026534;28;20041;-66
2022/03/15 06:48:51;;;;;;;19.10;13.52;;;;;;;4.67;45.14;100481.94;5026677;28;20042;-66
2022/03/15 06:51:21;;;;;;;20.38;13.18;;;;;;;4.67;45.21;100485.44;5026482;28;20088;-66
2022/03/15 06:53:53;;;;;;;16.77;12.50;;;;;;;4.67;44.88;100488.06;5025986;28;20041;-67
2022/03/15 06:56:22;;;;;;;22.25;13.30;;;;;;;4.71;45.02;100481.00;5026234;28;20042;-66
2022/03/15 06:58:52;;;;;;;18.10;13.55;;;;;;;4.71;45.51;100484.50;5026420;28;20050;-66
2022/03/15 07:01:22;;;;;;;16.20;11.75;;;;;;;4.80;44.76;100480.88;5026329;28;20042;-66
2022/03/15 07:03:52;;;;;;;18.05;12.07;;;;;;;4.85;44.83;100489.56;5025341;28;20047;-66
2022/03/15 07:06:22;;;;;;;15.82;12.93;;;;;;;4.87;45.01;100485.16;5026380;28;20065;-66
2022/03/15 07:08:54;;;;;;;15.85;11.38;;;;;;;4.58;44.72;100422.53;5026206;28;20049;-68
2022/03/15 07:11:22;;;;;;;16.70;12.02;;;;;;;4.97;44.61;100476.28;5025858;28;20042;-66
2022/03/15 07:13:52;;;;;;;17.77;12.45;;;;;;;4.89;45.03;100461.50;5025909;28;20052;-66
2022/03/15 07:16:22;;;;;;;17.55;13.10;;;;;;;4.98;44.62;100475.41;5026103;28;20029;-66
2022/03/15 07:18:53;;;;;;;17.85;11.90;;;;;;;5.06;44.83;100472.66;5025934;28;20045;-66
2022/03/15 07:21:23;;;;;;;20.58;13.23;;;;;;;5.09;45.06;100467.34;5025929;28;20057;-65
2022/03/15 07:23:54;;;;;;;19.88;13.70;;;;;;;5.10;44.59;100459.44;5026355;28;20030;-66
2022/03/15 07:26:23;;;;;;;17.77;12.73;;;;;;;5.16;44.51;100460.25;5025669;28;20041;-66
2022/03/15 07:28:53;;;;;;;16.25;12.20;;;;;;;5.25;44.28;100463.59;5025996;28;20038;-66
2022/03/15 07:31:23;;;;;;;15.68;11.77;;;;;;;5.29;44.39;100464.41;5025159;28;20053;-67
2022/03/15 07:33:53;;;;;;;16.10;12.10;;;;;;;5.35;44.12;100462.56;5025911;28;20037;-66
2022/03/15 07:36:23;;;;;;;16.67;13.57;;;;;;;5.38;44.19;100459.88;5025870;28;20052;-66
2022/03/15 07:38:55;;;;;;;18.73;13.20;;;;;;;5.43;44.00;100465.94;5025875;28;20030;-66
2022/03/15 07:41:24;;;;;;;18.08;12.68;;;;;;;5.48;43.86;100455.34;5025346;28;20053;-66
2022/03/15 07:43:54;;;;;;;18.23;11.68;;;;;;;5.54;43.92;100459.63;5025737;28;20088;-66
2022/03/15 07:46:24;;;;;;;19.17;12.63;;;;;;;5.50;44.33;100447.41;5025873;28;20042;-66
2022/03/15 07:48:54;;;;;;;18.38;13.35;;;;;;;5.63;43.76;100446.31;5025412;28;20084;-66
2022/03/15 07:51:24;;;;;;;16.10;11.55;;;;;;;5.66;43.96;100439.22;5025432;28;20045;-66
2022/03/15 07:53:56;;;;;;;16.67;13.25;;;;;;;5.64;44.14;100443.66;5024770;28;20042;-67
2022/03/15 07:56:25;;;;;;;17.88;11.93;;;;;;;5.08;44.00;100334.25;5025409;28;20041;-66
2022/03/15 07:58:55;;;;;;;17.17;12.57;;;;;;;5.75;43.79;100438.19;5025655;28;20038;-67
2022/03/15 08:01:25;;;;;;;18.13;12.60;;;;;;;5.77;43.78;100433.78;5025738;28;20034;-66
2022/03/15 08:03:55;;;;;;;16.33;12.98;;;;;;;5.87;43.86;100432.72;5025501;28;20042;-66
2022/03/15 08:06:25;;;;;;;17.05;11.95;;;;;;;6.00;43.67;100433.34;5025518;28;20057;-66
2022/03/15 08:08:57;;;;;;;18.77;12.77;;;;;;;6.07;43.65;100424.44;5025068;28;20069;-66
2022/03/15 08:11:26;;;;;;;21.25;12.07;;;;;;;5.49;43.52;100315.09;5025440;28;20045;-66
2022/03/15 08:13:56;;;;;;;18.10;12.68;;;;;;;6.24;43.51;100414.44;5025393;28;20042;-66
2022/03/15 08:16:26;;;;;;;17.02;13.13;;;;;;;6.32;43.31;100423.03;5025431;28;20046;-66
2022/03/15 08:18:56;;;;;;;17.23;13.30;;;;;;;6.41;43.26;100414.94;5025275;28;20042;-66
2022/03/15 08:21:26;;;;;;;16.38;11.90;;;;;;;6.58;43.05;100422.47;5025547;28;20092;-66
2022/03/15 08:23:57;;;;;;;19.05;12.68;;;;;;;6.65;42.91;100410.91;5029249;28;20065;-66
2022/03/15 08:26:26;;;;;;;15.32;12.48;;;;;;;6.69;42.76;100414.34;5029203;28;20042;-66
2022/03/15 08:28:56;;;;;;;17.30;13.32;;;;;;;6.80;42.72;100412.34;5028832;28;20041;-66
2022/03/15 08:31:26;;;;;;;20.73;12.52;;;;;;;6.93;42.40;100407.66;5028885;28;20045;-67
2022/03/15 08:33:56;;;;;;;16.58;12.18;;;;;;;7.00;42.26;100409.25;5029039;28;20171;-67
2022/03/15 08:36:26;;;;;;;16.30;12.32;;;;;;;7.06;42.38;100411.75;5028795;28;20162;-66
2022/03/15 08:38:58;;;;;;;18.17;12.77;;;;;;;7.19;42.05;100407.03;5028279;28;20201;-67
2022/03/15 08:41:26;;;;;;;21.45;12.60;;;;;;;7.28;42.17;100406.81;5028659;28;20229;-67
2022/03/15 08:43:57;;;;;;;14.95;11.98;;;;;;;7.24;42.03;100374.38;5028078;28;20217;-66
2022/03/15 08:46:27;;;;;;;16.35;12.02;;;;;;;7.51;41.89;100391.28;5028396;28;20294;-66
2022/03/15 08:48:57;;;;;;;18.30;13.02;;;;;;;7.59;41.62;100381.41;5028800;28;20290;-66
2022/03/15 08:51:27;;;;;;;18.13;12.68;;;;;;;7.74;41.65;100372.22;5028418;28;20045;-66
2022/03/15 08:54:00;;;;;;;14.98;10.98;;;;;;;7.98;41.35;100391.78;5028266;28;20065;-66
2022/03/15 08:56:28;;;;;;;14.52;11.07;;;;;;;8.20;40.98;100376.19;5028560;28;20245;-66
2022/03/15 08:58:58;;;;;;;17.17;12.90;;;;;;;8.31;40.70;100361.75;5028592;28;20213;-65
2022/03/15 09:01:28;;;;;;;17.73;12.52;;;;;;;8.37;40.71;100360.69;5027280;28;20298;-66
2022/03/15 09:03:58;;;;;;;14.52;11.23;;;;;;;8.49;40.73;100352.41;5028199;28;20320;-66
2022/03/15 09:06:28;;;;;;;19.98;13.07;;;;;;;8.71;40.48;100355.25;5028667;28;20042;-65
2022/03/15 09:09:00;;;;;;;20.23;11.27;;;;;;;8.86;40.32;100344.16;5028273;28;20030;-66
2022/03/15 09:11:28;;;;;;;15.45;12.40;;;;;;;8.99;40.17;100344.63;5028061;28;20065;-66
2022/03/15 09:13:59;;;;;;;15.73;12.13;;;;;;;9.16;39.96;100344.94;5027849;28;20042;-66
2022/03/15 09:16:29;;;;;;;19.85;12.82;;;;;;;9.19;39.97;100336.03;5027232;28;20109;-66
2022/03/15 09:18:59;;;;;;;17.48;12.23;;;;;;;9.32;39.81;100325.00;5028145;28;20060;-66
2022/03/15 09:21:28;;;;;;;12.88;10.18;;;;;;;9.44;39.75;100318.47;5027205;28;20041;-66
2022/03/15 09:24:00;;;;;;;16.30;12.35;;;;;;;9.38;39.62;100284.25;5028125;28;20042;-66
2022/03/15 09:26:29;;;;;;;14.05;10.73;;;;;;;9.62;39.50;100301.94;5028143;28;20041;-66
2022/03/15 09:28:59;;;;;;;19.48;11.93;;;;;;;9.74;39.53;100297.97;5027881;28;20048;-66
2022/03/15 09:31:29;;;;;;;17.33;12.27;;;;;;;9.84;39.56;100290.56;5027896;28;20057;-66
2022/03/15 09:33:59;;;;;;;15.73;10.05;;;;;;;9.87;39.56;100286.00;5027551;28;20092;-66
2022/03/15 09:36:29;;;;;;;11.63;10.15;;;;;;;9.97;39.37;100285.66;5027738;28;20042;-66
2022/03/15 09:39:01;;;;;;;14.98;11.52;;;;;;;10.01;39.51;100289.91;5027660;28;20056;-66
2022/03/15 09:41:29;;;;;;;16.40;12.43;;;;;;;9.12;39.57;100123.81;5028013;28;20037;-66
2022/03/15 09:44:02;;;;;;;15.27;11.98;;;;;;;10.05;39.34;100284.44;5027742;28;20048;-66
2022/03/15 09:46:31;;;;;;;15.05;12.07;;;;;;;10.18;39.47;100277.75;5026299;28;20058;-66
2022/03/15 09:49:02;;;;;;;17.60;12.35;;;;;;;10.32;39.36;100257.81;5027678;28;20352;-67
2022/03/15 09:51:32;;;;;;;16.10;11.75;;;;;;;10.41;39.04;100257.44;5027535;28;20238;-67
2022/03/15 09:54:02;;;;;;;16.45;11.43;;;;;;;10.59;38.91;100244.28;5027215;28;20217;-67
2022/03/15 09:56:38;;;;;;;16.23;12.48;;;;;;;10.74;38.80;100244.59;5026708;28;20253;-67
2022/03/15 09:59:15;;;;;;;16.48;13.02;;;;;;;10.23;38.84;100140.69;5027251;28;20209;-67
2022/03/15 10:01:50;;;;;;;18.85;12.55;;;;;;;10.89;38.66;100228.94;5026943;28;20137;-67
2022/03/15 10:04:24;;;;;;;19.40;12.77;;;;;;;10.94;38.65;100210.16;5027298;28;20057;-67
2022/03/15 10:06:57;;;;;;;17.30;13.25;;;;;;;11.02;38.59;100207.19;5027142;28;20041;-67
2022/03/15 10:09:31;;;;;;;14.48;10.75;;;;;;;11.33;38.50;100206.69;5026968;28;20041;-67
2022/03/15 10:12:04;;;;;;;16.37;11.87;;;;;;;11.50;38.20;100197.03;5026911;28;20046;-67
2022/03/15 10:14:44;;;;;;;16.20;11.70;;;;;;;11.74;38.00;100189.72;5027003;28;20377;-67
2022/03/15 10:17:16;;;;;;;18.25;11.50;;;;;;;12.02;37.71;100183.16;5026903;28;20049;-67
2022/03/15 10:19:55;;;;;;;20.38;12.23;;;;;;;12.36;37.19;100171.75;5027103;28;20041;-67
2022/03/15 10:22:28;;;;;;;14.48;11.32;;;;;;;12.57;36.64;100169.84;5026863;28;20045;-67
2022/03/15 10:25:02;;;;;;;18.50;10.73;;;;;;;12.66;36.81;100172.03;5026846;28;20042;-67
2022/03/15 10:27:35;;;;;;;14.00;10.90;;;;;;;12.73;36.57;100162.78;5026715;28;20053;-67
2022/03/15 10:30:09;;;;;;;11.27;9.82;;;;;;;12.85;35.98;100156.84;5026641;28;20038;-67
2022/03/15 10:32:42;;;;;;;14.27;9.25;;;;;;;10.36;35.53;99698.56;5025454;28;20045;-67
2022/03/15 10:35:18;;;;;;;15.80;10.95;;;;;;;13.16;34.96;100146.31;5025683;28;20049;-67
2022/03/15 10:37:52;;;;;;;11.32;9.10;;;;;;;13.22;35.13;100153.09;5026258;28;20094;-66
2022/03/15 10:40:34;;;;;;;14.80;8.85;;;;;;;13.11;34.51;100156.34;5026072;28;20108;-67
2022/03/15 10:43:08;;;;;;;13.82;9.23;;;;;;;13.09;34.87;100155.56;5025442;28;20041;-67
2022/03/15 10:45:43;;;;;;;16.05;9.27;;;;;;;12.64;34.81;100075.50;5025483;28;20085;-67
2022/03/15 10:48:18;;;;;;;14.10;9.95;;;;;;;12.86;35.02;100115.13;5026096;28;20351;-67
2022/03/15 10:50:56;;;;;;;11.23;8.25;;;;;;;13.09;34.43;100126.28;5026595;28;20065;-67
2022/03/15 10:53:37;;;;;;;12.35;8.15;;;;;;;13.09;34.71;100118.31;5026261;28;20050;-67
2022/03/15 10:56:12;;;;;;;14.35;9.05;;;;;;;13.07;34.61;100109.53;5025885;28;20057;-67
2022/03/15 10:58:47;;;;;;;14.05;9.05;;;;;;;13.05;34.79;100092.78;5025950;28;20233;-67
2022/03/15 11:01:20;;;;;;;15.65;9.02;;;;;;;12.90;34.91;100069.66;5025778;28;20233;-67
2022/03/15 11:03:53;;;;;;;14.52;10.02;;;;;;;13.03;34.87;100081.38;5026277;28;20179;-67
2022/03/15 11:06:35;;;;;;;11.90;9.53;;;;;;;13.04;35.04;100085.75;5026038;28;20088;-67
2022/03/15 11:09:20;;;;;;;15.05;10.27;;;;;;;12.99;35.21;100078.97;5026105;28;20100;-67
2022/03/15 11:12:02;;;;;;;15.20;9.82;;;;;;;12.93;35.33;100077.50;5025979;28;20064;-67
2022/03/15 11:14:39;;;;;;;11.45;9.30;;;;;;;12.56;35.64;100028.03;5025767;28;20226;-67
2022/03/15 11:17:14;;;;;;;13.38;9.55;;;;;;;12.90;35.67;100064.34;5024785;28;20042;-67
2022/03/15 11:19:48;;;;;;;15.40;9.35;;;;;;;12.89;35.40;100073.28;5025296;28;20041;-67
2022/03/15 11:22:23;;;;;;;14.18;9.05;;;;;;;12.90;35.68;100056.38;5025410;28;20045;-67
2022/03/15 11:25:03;;;;;;;7.57;6.78;;;;;;;12.90;35.40;100067.00;5025529;28;20351;-67
2022/03/15 11:27:40;;;;;;;12.18;7.35;;;;;;;12.94;35.65;100051.75;5025375;28;20061;-67
2022/03/15 11:30:14;;;;;;;10.43;7.45;;;;;;;12.97;35.59;100047.13;5025399;28;20046;-67
2022/03/15 11:32:47;;;;;;;13.30;8.57;;;;;;;12.51;35.46;99959.16;5024569;28;20073;-67
2022/03/15 11:35:22;;;;;;;13.55;7.55;;;;;;;13.00;35.86;100028.31;5025575;28;20171;-67